Terminal Aerodrome Forecast
Issued by NWS Mt. Holly, NJ

Home | Current Version | Previous Version | Text Only | Print | Product List | Glossary On
Versions: 1 2 3 4 5 6 7 8 9 10 11 12 13 14 15 16 17 18 19 20 21 22 23 24 25 26 27
371
FTUS41 KPHI 291324 AAA
TAFTTN
TAF AMD
KTTN 291324Z 2913/3012 35011G19KT P6SM SCT017
     FM291600 36012G20KT P6SM SCT040
     FM292300 36010KT P6SM SKC=

USA.gov is the U.S. government's official web portal to all federal, state and local government web resources and services.